createdAt,value
2023-04-09T00:01:07.201Z,89.69
2023-04-09T00:02:12.039Z,89.71
2023-04-09T00:03:13.875Z,89.38
2023-04-09T00:04:15.660Z,89.79
2023-04-09T00:05:17.287Z,89.55
2023-04-09T00:06:18.927Z,89.01
2023-04-09T00:07:20.758Z,88.88
2023-04-09T00:08:23.931Z,88.63
2023-04-09T00:09:25.940Z,88.58
2023-04-09T00:10:27.594Z,88.56
2023-04-09T00:11:29.289Z,88.38
2023-04-09T00:12:30.866Z,88.51
2023-04-09T00:13:39.049Z,88.68
2023-04-09T00:14:41.064Z,88.75
2023-04-09T00:15:42.644Z,89.07
2023-04-09T00:16:44.304Z,89.34
2023-04-09T00:17:45.929Z,89.67
2023-04-09T00:18:47.615Z,89.12
2023-04-09T00:19:49.199Z,89.65
2023-04-09T00:20:50.958Z,89.82
2023-04-09T00:21:52.709Z,90.23
2023-04-09T00:22:54.417Z,90.14
2023-04-09T00:23:56.223Z,89.83
2023-04-09T00:24:57.804Z,90.16
2023-04-09T00:25:59.444Z,89.80
2023-04-09T00:27:01.113Z,89.69
2023-04-09T00:28:02.753Z,89.63
2023-04-09T00:29:04.428Z,89.77
2023-04-09T00:30:06.692Z,89.46
2023-04-09T00:31:08.379Z,89.94
2023-04-09T00:32:09.994Z,89.35
2023-04-09T00:33:11.725Z,89.47
2023-04-09T00:34:13.620Z,89.54
2023-04-09T00:35:16.330Z,89.48
2023-04-09T00:36:18.071Z,89.38
2023-04-09T00:37:19.712Z,90.04
2023-04-09T00:38:21.449Z,90.01
2023-04-09T00:39:23.097Z,91.04
2023-04-09T00:40:24.736Z,90.50
2023-04-09T00:41:26.586Z,90.87
2023-04-09T00:42:32.274Z,91.03
2023-04-09T00:43:33.949Z,90.60
2023-04-09T00:44:35.836Z,90.26
2023-04-09T00:45:37.691Z,89.85
2023-04-09T00:46:39.311Z,89.66
2023-04-09T00:47:43.131Z,90.02
2023-04-09T00:48:44.797Z,89.74
2023-04-09T00:49:46.392Z,89.85
2023-04-09T00:50:47.996Z,89.95
2023-04-09T00:51:49.587Z,90.12
2023-04-09T00:52:51.389Z,89.55
2023-04-09T00:53:53.982Z,89.78
2023-04-09T00:54:55.583Z,89.28
2023-04-09T00:55:57.197Z,89.42
2023-04-09T00:56:58.790Z,89.66
2023-04-09T00:58:00.422Z,89.70
2023-04-09T00:59:02.073Z,89.53
2023-04-09T01:00:04.674Z,89.45
2023-04-09T01:01:07.177Z,89.52
2023-04-09T01:02:08.881Z,89.18
2023-04-09T01:03:10.604Z,89.28
2023-04-09T01:04:12.275Z,89.03
2023-04-09T01:05:14.653Z,88.96
2023-04-09T01:06:39.040Z,89.67
2023-04-09T01:07:48.045Z,89.45
2023-04-09T01:09:07.602Z,89.08
2023-04-09T01:10:16.449Z,89.51
2023-04-09T01:11:33.634Z,89.69
2023-04-09T01:12:46.933Z,89.65
2023-04-09T01:14:01.507Z,89.33
2023-04-09T01:15:07.385Z,89.22
2023-04-09T01:16:09.081Z,89.08
2023-04-09T01:17:15.813Z,89.54
2023-04-09T01:18:40.310Z,89.39
2023-04-09T01:19:55.074Z,89.19
2023-04-09T01:21:27.655Z,89.00
2023-04-09T01:23:06.620Z,89.51
2023-04-09T01:24:29.601Z,89.06
2023-04-09T01:26:02.485Z,88.96
2023-04-09T01:27:06.748Z,89.18
2023-04-09T01:28:17.922Z,89.15
2023-04-09T01:29:20.443Z,89.19
2023-04-09T01:30:22.702Z,89.43
2023-04-09T01:31:29.871Z,88.94
2023-04-09T01:32:33.614Z,88.52
2023-04-09T01:33:36.296Z,88.88
2023-04-09T01:34:38.973Z,89.06
2023-04-09T01:35:42.953Z,89.50
2023-04-09T01:36:47.300Z,89.45
2023-04-09T01:37:48.975Z,88.91
2023-04-09T01:38:51.700Z,88.89
2023-04-09T01:39:53.469Z,88.66
2023-04-09T01:40:55.972Z,88.80
2023-04-09T01:41:58.025Z,88.69
2023-04-09T01:42:59.677Z,88.50
2023-04-09T01:44:02.395Z,89.13
2023-04-09T01:45:04.853Z,89.43
2023-04-09T01:46:06.474Z,88.73
2023-04-09T01:47:08.712Z,88.72
2023-04-09T01:48:10.428Z,88.29
2023-04-09T01:49:12.098Z,88.91
2023-04-09T01:50:13.701Z,88.98
2023-04-09T01:51:15.515Z,88.38
2023-04-09T01:52:17.107Z,89.03
2023-04-09T01:53:18.824Z,88.83
2023-04-09T01:54:20.509Z,88.72
2023-04-09T01:55:22.098Z,89.36
2023-04-09T01:56:23.681Z,89.25
2023-04-09T01:57:25.377Z,89.19
2023-04-09T01:58:27.288Z,89.60
2023-04-09T01:59:28.866Z,89.75
2023-04-09T02:00:39.291Z,88.97
2023-04-09T02:01:48.315Z,88.68
2023-04-09T02:03:03.595Z,88.53
2023-04-09T02:04:08.083Z,88.96
2023-04-09T02:05:10.931Z,88.65
2023-04-09T02:06:16.316Z,88.84
2023-04-09T02:07:46.960Z,88.34
2023-04-09T02:08:48.561Z,88.54
2023-04-09T02:09:50.459Z,88.91
2023-04-09T02:10:59.478Z,88.54
2023-04-09T02:12:03.385Z,88.73
2023-04-09T02:13:05.978Z,88.54
2023-04-09T02:14:09.013Z,88.68
2023-04-09T02:15:10.859Z,88.73
2023-04-09T02:16:12.599Z,88.66
2023-04-09T02:17:14.342Z,88.40
2023-04-09T02:18:29.605Z,88.22
2023-04-09T02:19:47.229Z,88.64
2023-04-09T02:20:48.906Z,88.66
2023-04-09T02:21:50.502Z,88.54
2023-04-09T02:22:52.092Z,88.19
2023-04-09T02:23:53.725Z,88.50
2023-04-09T02:24:55.435Z,88.71
2023-04-09T02:25:57.015Z,88.62
2023-04-09T02:26:58.575Z,88.59
2023-04-09T02:28:00.164Z,88.67
2023-04-09T02:29:01.789Z,88.39
2023-04-09T02:30:04.205Z,88.52
2023-04-09T02:31:05.828Z,88.69
2023-04-09T02:32:07.598Z,88.84
2023-04-09T02:33:09.202Z,88.69
2023-04-09T02:34:10.947Z,89.11
2023-04-09T02:35:12.922Z,88.60
2023-04-09T02:36:14.538Z,88.52
2023-04-09T02:37:16.140Z,88.47
2023-04-09T02:38:17.743Z,88.20
2023-04-09T02:39:19.400Z,88.50
2023-04-09T02:40:21.039Z,87.77
2023-04-09T02:41:22.744Z,87.79
2023-04-09T02:42:24.401Z,87.96
2023-04-09T02:43:25.992Z,88.08
2023-04-09T02:44:27.619Z,88.05
2023-04-09T02:45:29.488Z,88.25
2023-04-09T02:46:31.150Z,88.33
2023-04-09T02:47:32.828Z,88.31
2023-04-09T02:48:34.424Z,87.85
2023-04-09T02:49:36.048Z,88.37
2023-04-09T02:50:37.751Z,87.98
2023-04-09T02:51:39.325Z,88.15
2023-04-09T02:52:40.932Z,88.53
2023-04-09T02:53:42.550Z,88.00
2023-04-09T02:54:44.142Z,88.00
2023-04-09T02:55:45.838Z,88.36
2023-04-09T02:56:47.426Z,88.39
2023-04-09T02:57:49.031Z,88.15
2023-04-09T02:58:54.085Z,88.14
2023-04-09T02:59:55.965Z,88.12
2023-04-09T03:00:57.580Z,88.49
2023-04-09T03:01:59.289Z,88.37
2023-04-09T03:03:01.199Z,88.87
2023-04-09T03:04:03.094Z,88.61
2023-04-09T03:05:05.133Z,88.53
2023-04-09T03:06:06.772Z,88.34
2023-04-09T03:07:08.460Z,88.70
2023-04-09T03:08:10.081Z,89.07
2023-04-09T03:09:11.727Z,88.92
2023-04-09T03:10:13.548Z,88.64
2023-04-09T03:11:15.878Z,88.51
2023-04-09T03:12:17.536Z,88.88
2023-04-09T03:13:19.183Z,88.74
2023-04-09T03:14:20.779Z,88.68
2023-04-09T03:15:22.343Z,89.00
2023-04-09T03:16:25.401Z,89.28
2023-04-09T03:17:27.395Z,89.38
2023-04-09T03:18:29.073Z,89.30
2023-04-09T03:19:33.748Z,89.49
2023-04-09T03:20:38.510Z,89.28
2023-04-09T03:21:40.945Z,89.19
2023-04-09T03:22:42.512Z,88.90
2023-04-09T03:23:44.132Z,88.92
2023-04-09T03:24:45.856Z,88.99
2023-04-09T03:25:47.464Z,89.03
2023-04-09T03:26:49.021Z,89.40
2023-04-09T03:27:50.596Z,89.18
2023-04-09T03:28:52.390Z,89.09
2023-04-09T03:29:56.456Z,89.26
2023-04-09T03:30:58.216Z,89.18
2023-04-09T03:31:59.834Z,89.04
2023-04-09T03:33:01.501Z,88.88
2023-04-09T03:34:03.228Z,88.85
2023-04-09T03:35:05.374Z,88.93
2023-04-09T03:36:07.088Z,88.82
2023-04-09T03:37:08.725Z,88.97
2023-04-09T03:38:10.491Z,89.23
2023-04-09T03:39:12.108Z,89.24
2023-04-09T03:40:13.899Z,89.44
2023-04-09T03:41:16.076Z,89.62
2023-04-09T03:42:17.732Z,89.71
2023-04-09T03:43:19.355Z,89.88
2023-04-09T03:44:21.230Z,90.05
2023-04-09T03:45:22.919Z,90.47
2023-04-09T03:46:25.281Z,90.67
2023-04-09T03:47:26.931Z,90.87
2023-04-09T03:48:28.545Z,91.09
2023-04-09T03:49:30.142Z,91.07
2023-04-09T03:50:31.742Z,90.73
2023-04-09T03:51:33.436Z,90.47
2023-04-09T03:52:35.022Z,90.21
2023-04-09T03:53:36.592Z,90.00
2023-04-09T03:54:38.190Z,89.71
2023-04-09T03:55:39.843Z,89.61
2023-04-09T03:56:41.554Z,89.32
2023-04-09T03:57:43.165Z,89.42
2023-04-09T03:58:44.814Z,89.41
2023-04-09T03:59:46.519Z,89.65
2023-04-09T04:00:48.810Z,89.66
2023-04-09T04:01:50.490Z,88.81
2023-04-09T04:02:52.617Z,89.24
2023-04-09T04:03:54.472Z,89.51
2023-04-09T04:04:56.126Z,89.32
2023-04-09T04:06:02.374Z,89.59
2023-04-09T04:07:04.104Z,89.17
2023-04-09T04:08:05.834Z,89.43
2023-04-09T04:09:07.483Z,89.65
2023-04-09T04:10:09.946Z,89.68
2023-04-09T04:11:11.535Z,89.85
2023-04-09T04:12:13.142Z,89.82
2023-04-09T04:13:14.796Z,89.79
2023-04-09T04:14:16.595Z,89.68
2023-04-09T04:15:20.161Z,89.61
2023-04-09T04:16:22.068Z,89.72
2023-04-09T04:17:23.657Z,89.62
2023-04-09T04:18:25.363Z,89.63
2023-04-09T04:19:26.991Z,89.63
2023-04-09T04:20:28.550Z,89.42
2023-04-09T04:21:30.132Z,89.68
2023-04-09T04:22:31.739Z,89.51
2023-04-09T04:23:34.211Z,89.32
2023-04-09T04:24:35.911Z,89.40
2023-04-09T04:25:37.510Z,89.37
2023-04-09T04:26:39.937Z,89.40
2023-04-09T04:27:42.400Z,89.65
2023-04-09T04:28:44.522Z,89.63
2023-04-09T04:29:46.220Z,89.47
2023-04-09T04:30:47.868Z,89.37
2023-04-09T04:31:49.488Z,89.60
2023-04-09T04:32:51.109Z,89.68
2023-04-09T04:33:52.813Z,89.90
2023-04-09T04:34:54.422Z,89.80
2023-04-09T04:36:10.705Z,89.42
2023-04-09T04:37:13.835Z,89.18
2023-04-09T04:38:15.518Z,89.08
2023-04-09T04:39:17.118Z,89.45
2023-04-09T04:40:18.725Z,89.57
2023-04-09T04:41:20.963Z,89.63
2023-04-09T04:42:23.301Z,89.50
2023-04-09T04:43:24.943Z,89.48
2023-04-09T04:44:26.523Z,89.30
2023-04-09T04:45:28.206Z,89.74
2023-04-09T04:46:29.814Z,89.50
2023-04-09T04:47:31.464Z,89.39
2023-04-09T04:48:33.258Z,89.53
2023-04-09T04:49:34.878Z,89.41
2023-04-09T04:50:36.575Z,89.39
2023-04-09T04:51:38.159Z,89.17
2023-04-09T04:52:40.491Z,89.54
2023-04-09T04:53:42.118Z,89.70
2023-04-09T04:54:43.824Z,89.91
2023-04-09T04:55:45.457Z,89.67
2023-04-09T04:56:47.075Z,89.25
2023-04-09T04:57:50.790Z,89.23
2023-04-09T04:58:52.596Z,89.31
2023-04-09T04:59:54.474Z,89.28
2023-04-09T05:00:56.077Z,89.07
2023-04-09T05:01:57.846Z,88.68
2023-04-09T05:02:59.684Z,88.92
2023-04-09T05:04:03.264Z,88.73
2023-04-09T05:05:05.314Z,88.95
2023-04-09T05:06:06.941Z,89.37
2023-04-09T05:07:08.536Z,89.44
2023-04-09T05:08:10.166Z,89.40
2023-04-09T05:09:11.764Z,89.17
2023-04-09T05:10:13.497Z,89.07
2023-04-09T05:11:16.966Z,89.13
2023-04-09T05:12:19.293Z,89.02
2023-04-09T05:13:20.894Z,89.28
2023-04-09T05:14:22.589Z,88.89
2023-04-09T05:15:24.232Z,88.76
2023-04-09T05:16:26.018Z,88.77
2023-04-09T05:17:27.745Z,88.88
2023-04-09T05:18:29.378Z,88.99
2023-04-09T05:19:31.044Z,89.04
2023-04-09T05:20:32.897Z,89.64
2023-04-09T05:21:34.549Z,89.78
2023-04-09T05:22:36.471Z,89.56
2023-04-09T05:23:38.098Z,89.59
2023-04-09T05:24:39.694Z,89.24
2023-04-09T05:25:41.375Z,89.20
2023-04-09T05:26:43.079Z,89.26
2023-04-09T05:27:44.681Z,89.51
2023-04-09T05:28:46.318Z,89.46
2023-04-09T05:29:48.208Z,89.39
2023-04-09T05:30:49.883Z,89.08
2023-04-09T05:31:51.630Z,88.74
2023-04-09T05:32:53.279Z,88.79
2023-04-09T05:33:54.972Z,88.68
2023-04-09T05:34:56.555Z,89.22
2023-04-09T05:35:58.220Z,88.94
2023-04-09T05:36:59.989Z,88.95
2023-04-09T05:38:01.702Z,88.70
2023-04-09T05:39:03.341Z,89.20
2023-04-09T05:40:05.595Z,89.03
2023-04-09T05:41:07.214Z,88.58
2023-04-09T05:42:08.975Z,89.04
2023-04-09T05:43:10.847Z,88.78
2023-04-09T05:44:12.666Z,88.47
2023-04-09T05:45:14.628Z,88.69
2023-04-09T05:46:16.260Z,88.38
2023-04-09T05:47:18.387Z,88.15
2023-04-09T05:48:21.183Z,88.46
2023-04-09T05:49:22.859Z,88.35
2023-04-09T05:50:24.483Z,88.16
2023-04-09T05:51:26.334Z,88.05
2023-04-09T05:52:28.556Z,87.93
2023-04-09T05:53:31.510Z,88.03
2023-04-09T05:54:33.145Z,88.14
2023-04-09T05:55:34.728Z,87.90
2023-04-09T05:56:36.513Z,88.22
2023-04-09T05:57:38.144Z,88.14
2023-04-09T05:58:39.727Z,88.20
2023-04-09T05:59:41.342Z,88.42
2023-04-09T06:00:42.903Z,87.78
2023-04-09T06:01:44.691Z,87.74
2023-04-09T06:02:46.611Z,87.63
2023-04-09T06:03:48.408Z,87.10
2023-04-09T06:04:50.187Z,87.27
2023-04-09T06:05:52.115Z,87.70
2023-04-09T06:06:54.056Z,87.63
2023-04-09T06:07:55.643Z,87.47
2023-04-09T06:08:57.812Z,87.33
2023-04-09T06:10:00.492Z,87.23
2023-04-09T06:11:02.106Z,87.53
2023-04-09T06:12:04.258Z,87.59
2023-04-09T06:13:06.359Z,87.24
2023-04-09T06:14:08.039Z,86.82
2023-04-09T06:15:10.033Z,86.79
2023-04-09T06:16:11.630Z,86.63
2023-04-09T06:17:13.258Z,86.28
2023-04-09T06:18:14.865Z,86.82
2023-04-09T06:19:16.862Z,86.85
2023-04-09T06:20:18.480Z,86.63
2023-04-09T06:21:20.322Z,86.92
2023-04-09T06:22:21.960Z,87.36
2023-04-09T06:23:23.563Z,87.42
2023-04-09T06:24:25.997Z,87.51
2023-04-09T06:25:27.643Z,87.47
2023-04-09T06:26:29.812Z,87.08
2023-04-09T06:27:31.486Z,86.99
2023-04-09T06:28:33.582Z,87.05
2023-04-09T06:29:35.394Z,87.14
2023-04-09T06:30:37.415Z,88.15
2023-04-09T06:31:39.609Z,87.25
2023-04-09T06:32:53.179Z,86.85
2023-04-09T06:33:56.094Z,86.89
2023-04-09T06:34:58.094Z,86.94
2023-04-09T06:35:59.768Z,86.96
2023-04-09T06:37:01.463Z,87.09
2023-04-09T06:38:03.061Z,86.73
2023-04-09T06:39:04.721Z,87.22
2023-04-09T06:40:07.551Z,86.92
2023-04-09T06:41:09.373Z,87.15
2023-04-09T06:42:10.951Z,87.74
2023-04-09T06:43:12.660Z,87.05
2023-04-09T06:44:14.250Z,86.51
2023-04-09T06:45:15.916Z,86.79
2023-04-09T06:46:20.146Z,86.83
2023-04-09T06:47:22.018Z,86.74
2023-04-09T06:48:23.582Z,86.52
2023-04-09T06:49:25.282Z,86.25
2023-04-09T06:50:27.047Z,86.59
2023-04-09T06:51:28.660Z,86.46
2023-04-09T06:52:30.395Z,85.80
2023-04-09T06:53:32.025Z,85.92
2023-04-09T06:54:33.599Z,85.94
2023-04-09T06:55:35.337Z,85.67
2023-04-09T06:56:36.939Z,85.53
2023-04-09T06:57:39.337Z,85.74
2023-04-09T06:58:41.031Z,85.94
2023-04-09T06:59:42.618Z,84.95
2023-04-09T07:00:44.235Z,84.99
2023-04-09T07:01:46.168Z,85.14
2023-04-09T07:02:48.064Z,85.55
2023-04-09T07:03:50.093Z,85.34
2023-04-09T07:04:51.949Z,86.32
2023-04-09T07:05:54.762Z,85.97
2023-04-09T07:06:59.236Z,86.54
2023-04-09T07:08:01.470Z,86.58
2023-04-09T07:09:03.447Z,86.50
2023-04-09T07:10:06.567Z,86.18
2023-04-09T07:11:08.479Z,86.43
2023-04-09T07:12:10.079Z,85.51
2023-04-09T07:13:11.758Z,85.77
2023-04-09T07:14:13.401Z,86.77
2023-04-09T07:15:15.016Z,85.93
2023-04-09T07:16:16.764Z,85.96
2023-04-09T07:17:18.381Z,87.22
2023-04-09T07:18:20.310Z,87.39
2023-04-09T07:19:21.967Z,86.49
2023-04-09T07:20:23.758Z,85.58
2023-04-09T07:21:26.158Z,84.45
2023-04-09T07:22:28.656Z,84.65
2023-04-09T07:23:30.584Z,84.77
2023-04-09T07:24:32.672Z,84.12
2023-04-09T07:25:34.480Z,84.64
2023-04-09T07:26:36.218Z,85.24
2023-04-09T07:27:37.834Z,84.14
2023-04-09T07:28:39.532Z,83.83
2023-04-09T07:29:44.514Z,83.74
2023-04-09T07:30:47.155Z,83.44
2023-04-09T07:31:48.853Z,85.15
2023-04-09T07:32:50.776Z,85.78
2023-04-09T07:33:52.781Z,84.53
2023-04-09T07:34:55.012Z,84.27
2023-04-09T07:35:56.906Z,83.44
2023-04-09T07:36:58.544Z,83.24
2023-04-09T07:38:00.267Z,82.98
2023-04-09T07:39:01.931Z,82.31
2023-04-09T07:40:04.137Z,81.49
2023-04-09T07:41:05.914Z,82.83
2023-04-09T07:42:07.565Z,82.42
2023-04-09T07:43:09.178Z,81.61
2023-04-09T07:44:11.332Z,81.70
2023-04-09T07:45:12.941Z,81.50
2023-04-09T07:46:21.877Z,81.95
2023-04-09T07:47:24.067Z,82.32
2023-04-09T07:48:25.900Z,82.33
2023-04-09T07:49:27.485Z,82.09
2023-04-09T07:50:29.356Z,81.59
2023-04-09T07:51:31.347Z,81.94
2023-04-09T07:52:33.016Z,81.88
2023-04-09T07:53:34.959Z,82.42
2023-04-09T07:54:36.715Z,82.17
2023-04-09T07:55:38.316Z,82.35
2023-04-09T07:56:39.997Z,80.82
2023-04-09T07:57:43.074Z,81.31
2023-04-09T07:58:44.856Z,81.07
2023-04-09T07:59:46.801Z,81.17
2023-04-09T08:00:48.822Z,81.75
2023-04-09T08:01:50.617Z,81.44
2023-04-09T08:02:52.896Z,81.17
2023-04-09T08:03:54.832Z,80.76
2023-04-09T08:04:56.910Z,80.98
2023-04-09T08:05:58.671Z,80.58
2023-04-09T08:07:00.299Z,80.55
2023-04-09T08:08:01.940Z,79.08
2023-04-09T08:09:03.610Z,79.36
2023-04-09T08:10:06.965Z,80.48
2023-04-09T08:11:08.665Z,78.66
2023-04-09T08:12:11.133Z,76.34
2023-04-09T08:13:12.738Z,76.02
2023-04-09T08:14:14.549Z,75.48
2023-04-09T08:15:16.342Z,76.49
2023-04-09T08:16:18.005Z,73.88
2023-04-09T08:17:19.701Z,75.35
2023-04-09T08:18:21.275Z,75.82
2023-04-09T08:19:22.892Z,75.25
2023-04-09T08:20:24.542Z,75.48
2023-04-09T08:21:26.758Z,76.55
2023-04-09T08:22:28.434Z,74.19
2023-04-09T08:23:30.019Z,75.17
2023-04-09T08:24:31.670Z,73.79
2023-04-09T08:25:33.229Z,74.60
2023-04-09T08:26:34.821Z,74.04
2023-04-09T08:27:37.214Z,73.82
2023-04-09T08:28:38.815Z,74.01
2023-04-09T08:29:42.623Z,73.31
2023-04-09T08:30:44.693Z,73.06
2023-04-09T08:31:46.507Z,73.35
2023-04-09T08:32:48.631Z,73.57
2023-04-09T08:33:50.993Z,72.86
2023-04-09T08:34:52.610Z,73.49
2023-04-09T08:35:54.397Z,73.50
2023-04-09T08:36:55.981Z,72.50
2023-04-09T08:37:57.731Z,71.83
2023-04-09T08:39:00.648Z,68.77
2023-04-09T08:40:02.268Z,69.82
2023-04-09T08:41:03.887Z,67.29
2023-04-09T08:42:06.769Z,68.62
2023-04-09T08:43:09.019Z,69.54
2023-04-09T08:44:10.613Z,69.85
2023-04-09T08:45:12.914Z,68.65
2023-04-09T08:46:18.411Z,66.74
2023-04-09T08:47:20.766Z,67.26
2023-04-09T08:48:22.685Z,67.17
2023-04-09T08:49:24.381Z,68.47
2023-04-09T08:50:26.793Z,67.53
2023-04-09T08:51:28.950Z,67.10
2023-04-09T08:52:34.092Z,68.48
2023-04-09T08:53:35.698Z,67.93
2023-04-09T08:54:37.345Z,67.97
2023-04-09T08:55:38.932Z,70.56
2023-04-09T08:56:40.648Z,68.00
2023-04-09T08:57:42.470Z,69.77
2023-04-09T08:58:44.788Z,70.36
2023-04-09T08:59:46.612Z,70.62
2023-04-09T09:00:48.194Z,67.68
2023-04-09T09:01:54.593Z,67.45
2023-04-09T09:03:07.185Z,68.69
2023-04-09T09:04:09.509Z,68.88
2023-04-09T09:05:13.132Z,69.55
2023-04-09T09:06:24.707Z,67.63
2023-04-09T09:07:28.044Z,68.56
2023-04-09T09:08:30.744Z,68.13
2023-04-09T09:09:32.388Z,67.19
2023-04-09T09:10:40.674Z,67.24
2023-04-09T09:11:46.213Z,67.41
2023-04-09T09:12:47.845Z,68.38
2023-04-09T09:14:00.490Z,68.03
2023-04-09T09:15:02.471Z,68.14
2023-04-09T09:16:14.502Z,70.41
2023-04-09T09:17:16.216Z,69.72
2023-04-09T09:18:18.596Z,69.64
2023-04-09T09:19:26.182Z,68.47
2023-04-09T09:20:28.027Z,69.15
2023-04-09T09:21:30.159Z,69.93
2023-04-09T09:22:32.030Z,69.65
2023-04-09T09:23:39.220Z,69.41
2023-04-09T09:24:51.352Z,68.44
2023-04-09T09:25:53.008Z,68.88
2023-04-09T09:26:54.649Z,68.74
2023-04-09T09:27:56.739Z,69.42
2023-04-09T09:28:59.020Z,68.69
2023-04-09T09:30:01.620Z,68.12
2023-04-09T09:31:09.816Z,68.75
2023-04-09T09:32:13.563Z,68.60
2023-04-09T09:33:15.688Z,68.29
2023-04-09T09:34:18.013Z,69.64
2023-04-09T09:35:19.802Z,70.34
2023-04-09T09:36:34.262Z,69.48
2023-04-09T09:37:36.065Z,69.55
2023-04-09T09:38:57.305Z,69.27
2023-04-09T09:39:59.446Z,69.32
2023-04-09T09:41:16.218Z,67.70
2023-04-09T09:42:17.842Z,68.72
2023-04-09T09:43:19.445Z,68.06
2023-04-09T09:44:33.311Z,69.98
2023-04-09T09:45:35.488Z,68.36
2023-04-09T09:46:41.445Z,69.50
2023-04-09T09:47:43.494Z,68.40
2023-04-09T09:48:46.577Z,66.82
2023-04-09T09:49:49.506Z,66.41
2023-04-09T09:50:51.213Z,67.60
2023-04-09T09:51:52.859Z,68.49
2023-04-09T09:52:59.113Z,68.08
2023-04-09T09:54:01.032Z,69.32
2023-04-09T09:55:02.704Z,67.76
2023-04-09T09:56:08.227Z,66.58
2023-04-09T09:57:10.908Z,66.25
2023-04-09T09:58:27.884Z,67.34
2023-04-09T09:59:31.933Z,66.85
2023-04-09T10:00:33.645Z,65.99
2023-04-09T10:01:36.856Z,65.92
2023-04-09T10:02:43.762Z,66.25
2023-04-09T10:03:46.559Z,68.94
2023-04-09T10:04:49.501Z,66.61
2023-04-09T10:05:51.656Z,66.87
2023-04-09T10:06:53.707Z,66.85
2023-04-09T10:07:56.425Z,66.69
2023-04-09T10:08:58.312Z,66.38
2023-04-09T10:10:00.076Z,66.73
2023-04-09T10:11:01.968Z,66.63
2023-04-09T10:12:05.028Z,67.03
2023-04-09T10:13:06.712Z,67.43
2023-04-09T10:14:08.352Z,66.61
2023-04-09T10:15:10.265Z,67.24
2023-04-09T10:16:13.136Z,66.67
2023-04-09T10:17:14.811Z,68.32
2023-04-09T10:18:16.644Z,67.16
2023-04-09T10:19:18.321Z,65.18
2023-04-09T10:20:24.121Z,65.57
2023-04-09T10:21:28.587Z,65.43
2023-04-09T10:22:30.243Z,64.97
2023-04-09T10:23:40.406Z,66.15
2023-04-09T10:24:42.121Z,65.62
2023-04-09T10:25:43.791Z,65.27
2023-04-09T10:26:46.086Z,67.27
2023-04-09T10:28:00.121Z,66.84
2023-04-09T10:29:14.694Z,67.36
2023-04-09T10:30:32.450Z,66.50
2023-04-09T10:31:47.754Z,67.03
2023-04-09T10:32:49.388Z,67.23
2023-04-09T10:33:51.026Z,66.85
2023-04-09T10:34:52.753Z,67.44
2023-04-09T10:35:55.415Z,67.06
2023-04-09T10:36:57.847Z,67.09
2023-04-09T10:38:00.520Z,66.96
2023-04-09T10:39:02.134Z,66.93
2023-04-09T10:40:03.890Z,66.97
2023-04-09T10:41:16.732Z,67.32
2023-04-09T10:42:24.905Z,67.08
2023-04-09T10:43:27.054Z,67.33
2023-04-09T10:44:28.886Z,67.06
2023-04-09T10:45:39.611Z,66.65
2023-04-09T10:46:43.111Z,66.51
2023-04-09T10:47:46.404Z,66.02
2023-04-09T10:48:48.079Z,66.05
2023-04-09T10:49:49.650Z,66.11
2023-04-09T10:50:54.046Z,67.26
2023-04-09T10:52:12.620Z,66.67
2023-04-09T10:53:26.484Z,67.45
2023-04-09T10:54:34.021Z,68.54
2023-04-09T10:55:37.603Z,67.64
2023-04-09T10:56:39.229Z,67.63
2023-04-09T10:57:41.530Z,68.18
2023-04-09T10:58:43.164Z,69.22
2023-04-09T10:59:52.270Z,68.00
2023-04-09T11:00:54.063Z,68.28
2023-04-09T11:01:55.777Z,66.87
2023-04-09T11:03:04.693Z,67.09
2023-04-09T11:04:11.455Z,66.59
2023-04-09T11:05:24.941Z,66.12
2023-04-09T11:06:27.681Z,67.04
2023-04-09T11:07:29.678Z,66.76
2023-04-09T11:08:32.220Z,66.62
2023-04-09T11:09:36.958Z,65.92
2023-04-09T11:10:39.964Z,65.92
2023-04-09T11:11:41.797Z,65.83
2023-04-09T11:12:43.496Z,65.79
2023-04-09T11:13:45.229Z,66.06
2023-04-09T11:14:46.901Z,66.05
2023-04-09T11:15:48.554Z,66.24
2023-04-09T11:16:50.446Z,65.95
2023-04-09T11:17:52.194Z,65.47
2023-04-09T11:18:56.276Z,65.81
2023-04-09T11:19:57.847Z,65.74
2023-04-09T11:21:00.532Z,65.56
2023-04-09T11:22:07.190Z,65.55
2023-04-09T11:23:08.796Z,66.11
2023-04-09T11:24:12.494Z,66.61
2023-04-09T11:25:33.302Z,65.86
2023-04-09T11:26:36.341Z,65.47
2023-04-09T11:27:39.027Z,66.10
2023-04-09T11:28:43.238Z,67.75
2023-04-09T11:29:44.901Z,66.63
2023-04-09T11:30:49.553Z,67.61
2023-04-09T11:31:51.591Z,67.13
2023-04-09T11:32:53.611Z,66.37
2023-04-09T11:33:55.277Z,66.42
2023-04-09T11:34:57.910Z,66.91
2023-04-09T11:35:59.560Z,66.33
2023-04-09T11:37:05.424Z,66.63
2023-04-09T11:38:08.272Z,67.55
2023-04-09T11:39:09.844Z,67.03
2023-04-09T11:40:21.610Z,66.18
2023-04-09T11:41:38.164Z,66.73
2023-04-09T11:42:39.763Z,66.34
2023-04-09T11:43:41.469Z,66.79
2023-04-09T11:44:45.108Z,66.97
2023-04-09T11:45:49.622Z,66.70
2023-04-09T11:46:52.042Z,67.35
2023-04-09T11:47:53.834Z,66.72
2023-04-09T11:48:55.942Z,67.18
2023-04-09T11:49:57.620Z,67.32
2023-04-09T11:50:59.284Z,65.74
2023-04-09T11:52:01.955Z,66.19
2023-04-09T11:53:16.537Z,66.04
2023-04-09T11:54:18.465Z,65.42
2023-04-09T11:55:27.040Z,65.31
2023-04-09T11:56:31.614Z,65.80
2023-04-09T11:57:46.612Z,64.73
2023-04-09T11:58:48.540Z,64.74
2023-04-09T11:59:50.275Z,64.74
2023-04-09T12:00:56.349Z,64.68
2023-04-09T12:01:58.635Z,63.96
2023-04-09T12:03:04.666Z,63.51
2023-04-09T12:04:07.922Z,64.57
2023-04-09T12:05:11.918Z,64.02
2023-04-09T12:06:13.687Z,63.49
2023-04-09T12:07:15.335Z,64.96
2023-04-09T12:08:18.532Z,64.46
2023-04-09T12:09:20.192Z,64.10
2023-04-09T12:10:26.953Z,63.93
2023-04-09T12:11:29.524Z,63.66
2023-04-09T12:12:31.318Z,64.33
2023-04-09T12:13:33.543Z,63.34
2023-04-09T12:14:35.185Z,63.59
2023-04-09T12:15:38.337Z,62.52
2023-04-09T12:16:44.708Z,62.08
2023-04-09T12:17:50.461Z,61.66
2023-04-09T12:18:55.895Z,62.54
2023-04-09T12:19:57.553Z,62.33
2023-04-09T12:21:01.138Z,61.42
2023-04-09T12:22:02.753Z,60.76
2023-04-09T12:23:05.175Z,61.57
2023-04-09T12:24:06.816Z,60.78
2023-04-09T12:25:08.822Z,60.45
2023-04-09T12:26:10.688Z,60.43
2023-04-09T12:27:12.268Z,60.68
2023-04-09T12:28:15.841Z,61.03
2023-04-09T12:29:18.835Z,61.87
2023-04-09T12:30:21.155Z,60.60
2023-04-09T12:31:22.836Z,61.65
2023-04-09T12:32:24.478Z,61.32
2023-04-09T12:33:26.218Z,60.70
2023-04-09T12:34:27.911Z,60.94
2023-04-09T12:35:29.644Z,60.17
2023-04-09T12:36:31.304Z,60.64
2023-04-09T12:37:32.925Z,60.51
2023-04-09T12:38:34.618Z,60.65
2023-04-09T12:39:36.364Z,59.91
2023-04-09T12:40:38.358Z,60.51
2023-04-09T12:41:39.975Z,61.56
2023-04-09T12:42:42.127Z,60.43
2023-04-09T12:43:44.045Z,60.49
2023-04-09T12:44:45.713Z,60.73
2023-04-09T12:45:47.429Z,60.76
2023-04-09T12:46:49.498Z,61.41
2023-04-09T12:47:51.283Z,61.68
2023-04-09T12:48:52.899Z,63.08
2023-04-09T12:49:54.705Z,62.76
2023-04-09T12:50:56.603Z,62.93
2023-04-09T12:51:58.204Z,63.24
2023-04-09T12:52:59.929Z,63.42
2023-04-09T12:54:04.073Z,63.20
2023-04-09T12:55:06.357Z,62.89
2023-04-09T12:56:08.374Z,62.26
2023-04-09T12:57:09.954Z,62.12
2023-04-09T12:58:11.528Z,61.90
2023-04-09T12:59:13.103Z,61.76
2023-04-09T13:00:15.654Z,62.40
2023-04-09T13:01:18.140Z,62.90
2023-04-09T13:02:20.558Z,62.74
2023-04-09T13:03:22.802Z,62.68
2023-04-09T13:04:24.605Z,62.45
2023-04-09T13:05:26.347Z,62.96
2023-04-09T13:06:28.187Z,62.53
2023-04-09T13:07:29.854Z,62.39
2023-04-09T13:08:31.508Z,62.19
2023-04-09T13:09:33.170Z,61.99
2023-04-09T13:10:34.877Z,62.14
2023-04-09T13:11:36.673Z,63.33
2023-04-09T13:12:38.382Z,63.09
2023-04-09T13:13:42.580Z,62.39
2023-04-09T13:14:47.413Z,61.79
2023-04-09T13:15:49.001Z,62.45
2023-04-09T13:16:52.481Z,63.05
2023-04-09T13:17:54.169Z,63.07
2023-04-09T13:18:55.899Z,63.52
2023-04-09T13:19:57.484Z,63.88
2023-04-09T13:20:59.165Z,63.98
2023-04-09T13:22:00.972Z,64.00
2023-04-09T13:23:02.749Z,64.30
2023-04-09T13:24:04.451Z,63.83
2023-04-09T13:25:06.297Z,64.93
2023-04-09T13:26:07.888Z,65.02
2023-04-09T13:27:09.727Z,65.40
2023-04-09T13:28:11.555Z,63.56
2023-04-09T13:29:13.235Z,63.72
2023-04-09T13:30:14.856Z,63.59
2023-04-09T13:31:16.585Z,62.98
2023-04-09T13:32:19.069Z,63.50
2023-04-09T13:33:20.750Z,63.33